sensor_id;sensor_type;location;lat;lon;timestamp;P1;durP1;ratioP1;P2;durP2;ratioP2
41059;SDS011;26811;53.160;8.202;2022-08-19T00:02:13;1234.95;;;298.45;;
41059;SDS011;26811;53.160;8.202;2022-08-19T00:07:14;1243.30;;;297.17;;
41059;SDS011;26811;53.160;8.202;2022-08-19T00:12:15;1074.97;;;249.50;;
41059;SDS011;26811;53.160;8.202;2022-08-19T00:17:15;973.47;;;226.63;;
41059;SDS011;26811;53.160;8.202;2022-08-19T00:22:16;975.13;;;221.73;;
41059;SDS011;26811;53.160;8.202;2022-08-19T00:27:17;925.60;;;209.20;;
41059;SDS011;26811;53.160;8.202;2022-08-19T00:32:18;853.65;;;179.93;;
41059;SDS011;26811;53.160;8.202;2022-08-19T00:37:21;951.28;;;190.77;;
41059;SDS011;26811;53.160;8.202;2022-08-19T00:42:25;1047.63;;;215.40;;
41059;SDS011;26811;53.160;8.202;2022-08-19T00:52:29;1999.90;;;564.78;;
41059;SDS011;26811;53.160;8.202;2022-08-19T00:57:35;1999.90;;;522.30;;
41059;SDS011;26811;53.160;8.202;2022-08-19T01:02:40;1999.90;;;446.27;;
41059;SDS011;26811;53.160;8.202;2022-08-19T01:07:41;1407.50;;;270.13;;
41059;SDS011;26811;53.160;8.202;2022-08-19T01:12:42;580.70;;;97.57;;
41059;SDS011;26811;53.160;8.202;2022-08-19T01:17:43;246.57;;;43.15;;
41059;SDS011;26811;53.160;8.202;2022-08-19T01:22:47;267.90;;;48.97;;
41059;SDS011;26811;53.160;8.202;2022-08-19T01:27:57;189.80;;;38.20;;
41059;SDS011;26811;53.160;8.202;2022-08-19T01:32:58;187.27;;;35.33;;
41059;SDS011;26811;53.160;8.202;2022-08-19T01:38:06;107.13;;;25.02;;
41059;SDS011;26811;53.160;8.202;2022-08-19T01:43:09;96.63;;;24.55;;
41059;SDS011;26811;53.160;8.202;2022-08-19T01:48:10;97.65;;;22.13;;
41059;SDS011;26811;53.160;8.202;2022-08-19T01:53:11;74.18;;;21.15;;
41059;SDS011;26811;53.160;8.202;2022-08-19T01:58:15;78.80;;;21.55;;
41059;SDS011;26811;53.160;8.202;2022-08-19T02:03:19;65.32;;;19.45;;
41059;SDS011;26811;53.160;8.202;2022-08-19T02:08:19;72.22;;;19.58;;
41059;SDS011;26811;53.160;8.202;2022-08-19T02:13:20;58.72;;;16.50;;
41059;SDS011;26811;53.160;8.202;2022-08-19T02:18:20;50.50;;;14.73;;
41059;SDS011;26811;53.160;8.202;2022-08-19T02:23:21;50.58;;;14.82;;
41059;SDS011;26811;53.160;8.202;2022-08-19T02:28:21;49.00;;;15.73;;
41059;SDS011;26811;53.160;8.202;2022-08-19T02:33:22;57.75;;;15.93;;
41059;SDS011;26811;53.160;8.202;2022-08-19T02:38:23;47.97;;;14.15;;
41059;SDS011;26811;53.160;8.202;2022-08-19T02:43:26;56.03;;;14.52;;
41059;SDS011;26811;53.160;8.202;2022-08-19T02:48:28;50.55;;;14.82;;
41059;SDS011;26811;53.160;8.202;2022-08-19T02:53:29;48.03;;;15.05;;
41059;SDS011;26811;53.160;8.202;2022-08-19T02:58:29;45.88;;;14.38;;
41059;SDS011;26811;53.160;8.202;2022-08-19T03:03:30;49.60;;;14.80;;
41059;SDS011;26811;53.160;8.202;2022-08-19T03:08:31;51.10;;;15.23;;
41059;SDS011;26811;53.160;8.202;2022-08-19T03:13:32;58.50;;;16.17;;
41059;SDS011;26811;53.160;8.202;2022-08-19T03:18:33;58.10;;;15.73;;
41059;SDS011;26811;53.160;8.202;2022-08-19T03:23:34;54.33;;;14.90;;
41059;SDS011;26811;53.160;8.202;2022-08-19T03:28:35;45.60;;;13.25;;
41059;SDS011;26811;53.160;8.202;2022-08-19T03:33:37;40.35;;;11.90;;
41059;SDS011;26811;53.160;8.202;2022-08-19T03:38:41;44.65;;;12.35;;
41059;SDS011;26811;53.160;8.202;2022-08-19T03:43:43;36.35;;;11.32;;
41059;SDS011;26811;53.160;8.202;2022-08-19T03:48:50;40.20;;;13.38;;
41059;SDS011;26811;53.160;8.202;2022-08-19T03:53:56;40.15;;;12.13;;
41059;SDS011;26811;53.160;8.202;2022-08-19T03:58:59;35.63;;;11.77;;
41059;SDS011;26811;53.160;8.202;2022-08-19T04:04:00;40.08;;;12.35;;
41059;SDS011;26811;53.160;8.202;2022-08-19T04:09:02;37.17;;;11.68;;
41059;SDS011;26811;53.160;8.202;2022-08-19T04:14:05;36.72;;;11.93;;
41059;SDS011;26811;53.160;8.202;2022-08-19T04:19:06;40.30;;;13.43;;
41059;SDS011;26811;53.160;8.202;2022-08-19T04:24:11;44.20;;;13.82;;
41059;SDS011;26811;53.160;8.202;2022-08-19T04:29:13;44.17;;;13.10;;
41059;SDS011;26811;53.160;8.202;2022-08-19T04:34:17;41.67;;;13.07;;
41059;SDS011;26811;53.160;8.202;2022-08-19T04:39:29;45.17;;;13.93;;
41059;SDS011;26811;53.160;8.202;2022-08-19T04:45:04;41.42;;;13.43;;
41059;SDS011;26811;53.160;8.202;2022-08-19T04:50:07;46.92;;;14.65;;
41059;SDS011;26811;53.160;8.202;2022-08-19T04:55:09;38.42;;;13.20;;
41059;SDS011;26811;53.160;8.202;2022-08-19T05:00:11;45.20;;;14.13;;
41059;SDS011;26811;53.160;8.202;2022-08-19T05:05:12;44.80;;;13.57;;
41059;SDS011;26811;53.160;8.202;2022-08-19T05:10:13;50.40;;;13.77;;
41059;SDS011;26811;53.160;8.202;2022-08-19T05:15:13;48.38;;;15.48;;
41059;SDS011;26811;53.160;8.202;2022-08-19T05:20:14;59.45;;;15.60;;
41059;SDS011;26811;53.160;8.202;2022-08-19T05:25:33;41.42;;;14.13;;
41059;SDS011;26811;53.160;8.202;2022-08-19T05:30:33;37.45;;;13.13;;
41059;SDS011;26811;53.160;8.202;2022-08-19T05:35:35;82.25;;;17.30;;
41059;SDS011;26811;53.160;8.202;2022-08-19T05:40:37;517.58;;;62.38;;
41059;SDS011;26811;53.160;8.202;2022-08-19T05:45:39;665.23;;;86.07;;
41059;SDS011;26811;53.160;8.202;2022-08-19T05:55:42;437.70;;;56.72;;
41059;SDS011;26811;53.160;8.202;2022-08-19T06:00:43;494.77;;;65.05;;
41059;SDS011;26811;53.160;8.202;2022-08-19T06:05:45;442.35;;;60.30;;
41059;SDS011;26811;53.160;8.202;2022-08-19T06:10:45;364.48;;;49.03;;
41059;SDS011;26811;53.160;8.202;2022-08-19T06:15:46;224.60;;;35.10;;
41059;SDS011;26811;53.160;8.202;2022-08-19T06:20:47;77.13;;;17.95;;
41059;SDS011;26811;53.160;8.202;2022-08-19T06:25:48;43.33;;;13.57;;
41059;SDS011;26811;53.160;8.202;2022-08-19T06:30:49;51.22;;;13.10;;
41059;SDS011;26811;53.160;8.202;2022-08-19T06:35:51;38.10;;;11.87;;
41059;SDS011;26811;53.160;8.202;2022-08-19T06:40:59;30.95;;;10.32;;
41059;SDS011;26811;53.160;8.202;2022-08-19T06:46:01;31.50;;;10.60;;
41059;SDS011;26811;53.160;8.202;2022-08-19T06:51:03;31.75;;;10.63;;
41059;SDS011;26811;53.160;8.202;2022-08-19T06:56:05;29.52;;;11.18;;
41059;SDS011;26811;53.160;8.202;2022-08-19T07:01:06;31.02;;;10.00;;
41059;SDS011;26811;53.160;8.202;2022-08-19T07:06:12;28.10;;;8.73;;
41059;SDS011;26811;53.160;8.202;2022-08-19T07:11:17;17.40;;;7.85;;
41059;SDS011;26811;53.160;8.202;2022-08-19T07:16:19;17.98;;;6.78;;
41059;SDS011;26811;53.160;8.202;2022-08-19T07:21:22;15.70;;;5.90;;
41059;SDS011;26811;53.160;8.202;2022-08-19T07:26:28;19.00;;;6.90;;
41059;SDS011;26811;53.160;8.202;2022-08-19T07:31:32;18.83;;;6.20;;
41059;SDS011;26811;53.160;8.202;2022-08-19T07:36:37;19.15;;;5.38;;
41059;SDS011;26811;53.160;8.202;2022-08-19T07:41:40;14.27;;;5.20;;
41059;SDS011;26811;53.160;8.202;2022-08-19T07:51:45;16.10;;;5.80;;
41059;SDS011;26811;53.160;8.202;2022-08-19T07:56:47;18.15;;;5.78;;
41059;SDS011;26811;53.160;8.202;2022-08-19T08:01:50;9.88;;;5.15;;
41059;SDS011;26811;53.160;8.202;2022-08-19T08:06:51;14.88;;;5.25;;
41059;SDS011;26811;53.160;8.202;2022-08-19T08:12:16;8.93;;;5.03;;
41059;SDS011;26811;53.160;8.202;2022-08-19T08:17:21;11.70;;;5.47;;
41059;SDS011;26811;53.160;8.202;2022-08-19T08:22:24;10.93;;;5.03;;
41059;SDS011;26811;53.160;8.202;2022-08-19T08:27:44;11.90;;;5.40;;
41059;SDS011;26811;53.160;8.202;2022-08-19T08:32:45;11.98;;;5.45;;
41059;SDS011;26811;53.160;8.202;2022-08-19T08:37:46;15.83;;;5.80;;
41059;SDS011;26811;53.160;8.202;2022-08-19T08:42:55;9.27;;;5.90;;
41059;SDS011;26811;53.160;8.202;2022-08-19T08:48:18;15.00;;;6.45;;
41059;SDS011;26811;53.160;8.202;2022-08-19T08:53:25;17.50;;;5.95;;
41059;SDS011;26811;53.160;8.202;2022-08-19T08:58:45;13.90;;;6.78;;
41059;SDS011;26811;53.160;8.202;2022-08-19T09:03:59;12.50;;;5.70;;
41059;SDS011;26811;53.160;8.202;2022-08-19T09:09:04;19.10;;;5.38;;
41059;SDS011;26811;53.160;8.202;2022-08-19T09:19:57;13.70;;;5.65;;
41059;SDS011;26811;53.160;8.202;2022-08-19T09:25:02;13.85;;;6.05;;
41059;SDS011;26811;53.160;8.202;2022-08-19T09:30:05;14.98;;;5.75;;
41059;SDS011;26811;53.160;8.202;2022-08-19T09:35:07;12.75;;;5.85;;
41059;SDS011;26811;53.160;8.202;2022-08-19T09:40:09;13.00;;;6.40;;
41059;SDS011;26811;53.160;8.202;2022-08-19T09:45:11;14.85;;;5.53;;
41059;SDS011;26811;53.160;8.202;2022-08-19T09:50:11;20.13;;;6.40;;
41059;SDS011;26811;53.160;8.202;2022-08-19T09:55:12;17.50;;;5.90;;
41059;SDS011;26811;53.160;8.202;2022-08-19T10:00:13;9.23;;;5.27;;
41059;SDS011;26811;53.160;8.202;2022-08-19T10:05:14;12.93;;;5.03;;
41059;SDS011;26811;53.160;8.202;2022-08-19T10:10:35;11.40;;;5.28;;
41059;SDS011;26811;53.160;8.202;2022-08-19T10:15:36;16.02;;;6.30;;
41059;SDS011;26811;53.160;8.202;2022-08-19T10:20:39;9.38;;;5.10;;
41059;SDS011;26811;53.160;8.202;2022-08-19T10:25:41;10.95;;;4.90;;
41059;SDS011;26811;53.160;8.202;2022-08-19T10:30:42;10.50;;;4.45;;
41059;SDS011;26811;53.160;8.202;2022-08-19T10:35:43;9.60;;;4.80;;
41059;SDS011;26811;53.160;8.202;2022-08-19T10:40:44;9.57;;;4.40;;
41059;SDS011;26811;53.160;8.202;2022-08-19T10:45:48;9.87;;;4.80;;
41059;SDS011;26811;53.160;8.202;2022-08-19T10:50:53;12.82;;;4.72;;
41059;SDS011;26811;53.160;8.202;2022-08-19T10:56:13;13.85;;;5.20;;
41059;SDS011;26811;53.160;8.202;2022-08-19T11:01:34;9.40;;;4.65;;
41059;SDS011;26811;53.160;8.202;2022-08-19T11:06:34;10.32;;;4.65;;
41059;SDS011;26811;53.160;8.202;2022-08-19T11:11:36;7.63;;;3.78;;
41059;SDS011;26811;53.160;8.202;2022-08-19T11:16:40;11.05;;;4.40;;
41059;SDS011;26811;53.160;8.202;2022-08-19T11:21:43;11.57;;;4.80;;
41059;SDS011;26811;53.160;8.202;2022-08-19T11:26:44;9.55;;;4.60;;
41059;SDS011;26811;53.160;8.202;2022-08-19T11:31:45;8.43;;;4.00;;
41059;SDS011;26811;53.160;8.202;2022-08-19T11:36:47;12.60;;;5.10;;
41059;SDS011;26811;53.160;8.202;2022-08-19T11:41:49;12.52;;;4.50;;
41059;SDS011;26811;53.160;8.202;2022-08-19T11:46:50;11.70;;;4.73;;
41059;SDS011;26811;53.160;8.202;2022-08-19T11:51:51;11.73;;;4.90;;
41059;SDS011;26811;53.160;8.202;2022-08-19T12:01:53;8.53;;;4.47;;
41059;SDS011;26811;53.160;8.202;2022-08-19T12:06:55;8.77;;;4.50;;
41059;SDS011;26811;53.160;8.202;2022-08-19T12:11:56;7.87;;;4.30;;
41059;SDS011;26811;53.160;8.202;2022-08-19T12:16:56;8.07;;;4.43;;
41059;SDS011;26811;53.160;8.202;2022-08-19T12:22:00;6.97;;;4.67;;
41059;SDS011;26811;53.160;8.202;2022-08-19T12:27:02;6.68;;;4.05;;
41059;SDS011;26811;53.160;8.202;2022-08-19T12:32:03;7.03;;;4.47;;
41059;SDS011;26811;53.160;8.202;2022-08-19T12:37:04;9.70;;;4.43;;
41059;SDS011;26811;53.160;8.202;2022-08-19T12:42:06;10.70;;;4.30;;
41059;SDS011;26811;53.160;8.202;2022-08-19T12:47:08;7.57;;;4.50;;
41059;SDS011;26811;53.160;8.202;2022-08-19T12:52:10;6.22;;;4.40;;
41059;SDS011;26811;53.160;8.202;2022-08-19T12:57:11;8.87;;;4.80;;
41059;SDS011;26811;53.160;8.202;2022-08-19T13:02:11;8.10;;;5.20;;
41059;SDS011;26811;53.160;8.202;2022-08-19T13:07:12;6.63;;;4.40;;
41059;SDS011;26811;53.160;8.202;2022-08-19T13:12:12;8.57;;;4.40;;
41059;SDS011;26811;53.160;8.202;2022-08-19T13:17:13;13.33;;;4.90;;
41059;SDS011;26811;53.160;8.202;2022-08-19T13:22:15;11.63;;;5.03;;
41059;SDS011;26811;53.160;8.202;2022-08-19T13:27:16;7.17;;;4.23;;
41059;SDS011;26811;53.160;8.202;2022-08-19T13:32:16;7.10;;;4.60;;
41059;SDS011;26811;53.160;8.202;2022-08-19T13:37:35;8.23;;;4.88;;
41059;SDS011;26811;53.160;8.202;2022-08-19T13:42:42;9.95;;;4.63;;
41059;SDS011;26811;53.160;8.202;2022-08-19T13:47:45;9.38;;;4.55;;
41059;SDS011;26811;53.160;8.202;2022-08-19T13:52:47;8.43;;;4.53;;
41059;SDS011;26811;53.160;8.202;2022-08-19T13:57:52;9.05;;;4.50;;
41059;SDS011;26811;53.160;8.202;2022-08-19T14:02:54;8.93;;;4.60;;
41059;SDS011;26811;53.160;8.202;2022-08-19T14:07:56;8.10;;;4.80;;
41059;SDS011;26811;53.160;8.202;2022-08-19T14:12:57;10.02;;;5.15;;
41059;SDS011;26811;53.160;8.202;2022-08-19T14:17:59;8.75;;;5.18;;
41059;SDS011;26811;53.160;8.202;2022-08-19T14:23:00;10.00;;;5.27;;
41059;SDS011;26811;53.160;8.202;2022-08-19T14:28:02;7.82;;;5.50;;
41059;SDS011;26811;53.160;8.202;2022-08-19T14:33:03;11.97;;;5.70;;
41059;SDS011;26811;53.160;8.202;2022-08-19T14:38:05;8.52;;;5.10;;
41059;SDS011;26811;53.160;8.202;2022-08-19T14:43:06;10.00;;;5.68;;
41059;SDS011;26811;53.160;8.202;2022-08-19T14:48:07;6.80;;;5.20;;
41059;SDS011;26811;53.160;8.202;2022-08-19T14:58:09;8.20;;;5.17;;
41059;SDS011;26811;53.160;8.202;2022-08-19T15:03:09;7.90;;;5.27;;
41059;SDS011;26811;53.160;8.202;2022-08-19T15:08:13;11.10;;;5.18;;
41059;SDS011;26811;53.160;8.202;2022-08-19T15:13:13;7.43;;;5.17;;
41059;SDS011;26811;53.160;8.202;2022-08-19T15:18:14;9.07;;;6.30;;
41059;SDS011;26811;53.160;8.202;2022-08-19T15:23:15;8.23;;;5.65;;
41059;SDS011;26811;53.160;8.202;2022-08-19T15:28:17;10.57;;;6.00;;
41059;SDS011;26811;53.160;8.202;2022-08-19T15:33:18;7.93;;;5.77;;
41059;SDS011;26811;53.160;8.202;2022-08-19T15:38:20;14.40;;;6.03;;
41059;SDS011;26811;53.160;8.202;2022-08-19T15:43:24;7.72;;;5.35;;
41059;SDS011;26811;53.160;8.202;2022-08-19T15:48:25;10.03;;;6.20;;
41059;SDS011;26811;53.160;8.202;2022-08-19T15:53:25;12.07;;;6.00;;
41059;SDS011;26811;53.160;8.202;2022-08-19T15:58:26;11.63;;;5.70;;
41059;SDS011;26811;53.160;8.202;2022-08-19T16:03:45;11.43;;;6.20;;
41059;SDS011;26811;53.160;8.202;2022-08-19T16:09:04;10.65;;;6.13;;
41059;SDS011;26811;53.160;8.202;2022-08-19T16:14:05;12.37;;;5.80;;
41059;SDS011;26811;53.160;8.202;2022-08-19T16:19:07;9.77;;;5.00;;
41059;SDS011;26811;53.160;8.202;2022-08-19T16:24:09;10.10;;;4.40;;
41059;SDS011;26811;53.160;8.202;2022-08-19T16:29:12;8.98;;;4.00;;
41059;SDS011;26811;53.160;8.202;2022-08-19T16:34:13;6.47;;;4.25;;
41059;SDS011;26811;53.160;8.202;2022-08-19T16:39:14;7.83;;;4.47;;
41059;SDS011;26811;53.160;8.202;2022-08-19T16:44:16;7.05;;;4.47;;
41059;SDS011;26811;53.160;8.202;2022-08-19T16:49:19;10.55;;;5.40;;
41059;SDS011;26811;53.160;8.202;2022-08-19T16:54:20;8.73;;;5.10;;
41059;SDS011;26811;53.160;8.202;2022-08-19T16:59:20;7.20;;;5.00;;
41059;SDS011;26811;53.160;8.202;2022-08-19T17:04:23;8.25;;;4.97;;
41059;SDS011;26811;53.160;8.202;2022-08-19T17:09:24;16.93;;;4.97;;
41059;SDS011;26811;53.160;8.202;2022-08-19T17:14:25;6.93;;;4.60;;
41059;SDS011;26811;53.160;8.202;2022-08-19T17:19:25;8.20;;;4.73;;
41059;SDS011;26811;53.160;8.202;2022-08-19T17:24:27;11.60;;;5.25;;
41059;SDS011;26811;53.160;8.202;2022-08-19T17:29:27;8.50;;;5.00;;
41059;SDS011;26811;53.160;8.202;2022-08-19T17:34:28;8.73;;;5.18;;
41059;SDS011;26811;53.160;8.202;2022-08-19T17:39:29;13.23;;;5.13;;
41059;SDS011;26811;53.160;8.202;2022-08-19T17:44:29;12.00;;;5.47;;
41059;SDS011;26811;53.160;8.202;2022-08-19T17:49:32;9.95;;;5.10;;
41059;SDS011;26811;53.160;8.202;2022-08-19T17:54:33;11.77;;;5.50;;
41059;SDS011;26811;53.160;8.202;2022-08-19T17:59:33;8.05;;;5.07;;
41059;SDS011;26811;53.160;8.202;2022-08-19T18:04:36;8.80;;;5.57;;
41059;SDS011;26811;53.160;8.202;2022-08-19T18:09:38;11.48;;;5.20;;
41059;SDS011;26811;53.160;8.202;2022-08-19T18:19:41;9.88;;;5.22;;
41059;SDS011;26811;53.160;8.202;2022-08-19T18:24:42;10.80;;;5.40;;
41059;SDS011;26811;53.160;8.202;2022-08-19T18:29:43;10.63;;;5.82;;
41059;SDS011;26811;53.160;8.202;2022-08-19T18:34:43;10.38;;;6.05;;
41059;SDS011;26811;53.160;8.202;2022-08-19T18:39:44;13.10;;;6.80;;
41059;SDS011;26811;53.160;8.202;2022-08-19T18:45:04;15.07;;;7.60;;
41059;SDS011;26811;53.160;8.202;2022-08-19T18:50:37;14.35;;;8.60;;
41059;SDS011;26811;53.160;8.202;2022-08-19T18:55:41;15.43;;;10.00;;
41059;SDS011;26811;53.160;8.202;2022-08-19T19:00:42;17.33;;;10.85;;
41059;SDS011;26811;53.160;8.202;2022-08-19T19:05:42;20.55;;;11.88;;
41059;SDS011;26811;53.160;8.202;2022-08-19T19:10:43;21.95;;;12.98;;
41059;SDS011;26811;53.160;8.202;2022-08-19T19:15:44;28.45;;;14.65;;
41059;SDS011;26811;53.160;8.202;2022-08-19T19:20:44;22.05;;;12.80;;
41059;SDS011;26811;53.160;8.202;2022-08-19T19:25:45;26.98;;;14.30;;
41059;SDS011;26811;53.160;8.202;2022-08-19T19:30:46;25.48;;;13.95;;
41059;SDS011;26811;53.160;8.202;2022-08-19T19:35:46;25.88;;;14.75;;
41059;SDS011;26811;53.160;8.202;2022-08-19T19:40:47;36.80;;;15.50;;
41059;SDS011;26811;53.160;8.202;2022-08-19T19:45:47;29.50;;;15.50;;
41059;SDS011;26811;53.160;8.202;2022-08-19T19:50:48;33.88;;;17.08;;
41059;SDS011;26811;53.160;8.202;2022-08-19T19:55:49;35.85;;;16.30;;
41059;SDS011;26811;53.160;8.202;2022-08-19T20:00:50;33.20;;;17.17;;
41059;SDS011;26811;53.160;8.202;2022-08-19T20:05:51;31.85;;;16.83;;
41059;SDS011;26811;53.160;8.202;2022-08-19T20:10:51;33.17;;;17.83;;
41059;SDS011;26811;53.160;8.202;2022-08-19T20:15:52;32.22;;;17.58;;
41059;SDS011;26811;53.160;8.202;2022-08-19T20:20:52;29.33;;;16.38;;
41059;SDS011;26811;53.160;8.202;2022-08-19T20:25:53;28.27;;;15.20;;
41059;SDS011;26811;53.160;8.202;2022-08-19T20:30:54;27.70;;;14.43;;
41059;SDS011;26811;53.160;8.202;2022-08-19T20:35:54;34.78;;;14.63;;
41059;SDS011;26811;53.160;8.202;2022-08-19T20:40:55;26.33;;;12.57;;
41059;SDS011;26811;53.160;8.202;2022-08-19T20:45:56;26.80;;;12.45;;
41059;SDS011;26811;53.160;8.202;2022-08-19T20:50:57;29.67;;;16.25;;
41059;SDS011;26811;53.160;8.202;2022-08-19T20:55:57;30.30;;;16.05;;
41059;SDS011;26811;53.160;8.202;2022-08-19T21:00:58;31.77;;;16.95;;
41059;SDS011;26811;53.160;8.202;2022-08-19T21:11:02;32.63;;;16.55;;
41059;SDS011;26811;53.160;8.202;2022-08-19T21:16:03;38.73;;;16.70;;
41059;SDS011;26811;53.160;8.202;2022-08-19T21:21:04;37.05;;;15.82;;
41059;SDS011;26811;53.160;8.202;2022-08-19T21:26:04;29.98;;;14.63;;
41059;SDS011;26811;53.160;8.202;2022-08-19T21:31:05;38.28;;;16.13;;
41059;SDS011;26811;53.160;8.202;2022-08-19T21:36:09;31.02;;;15.55;;
41059;SDS011;26811;53.160;8.202;2022-08-19T21:41:09;31.67;;;15.65;;
41059;SDS011;26811;53.160;8.202;2022-08-19T21:46:10;29.30;;;15.07;;
41059;SDS011;26811;53.160;8.202;2022-08-19T21:51:11;28.15;;;15.23;;
41059;SDS011;26811;53.160;8.202;2022-08-19T21:56:11;31.17;;;14.40;;
41059;SDS011;26811;53.160;8.202;2022-08-19T22:01:12;28.67;;;14.63;;
41059;SDS011;26811;53.160;8.202;2022-08-19T22:06:12;25.77;;;13.80;;
41059;SDS011;26811;53.160;8.202;2022-08-19T22:11:13;30.55;;;13.32;;
41059;SDS011;26811;53.160;8.202;2022-08-19T22:16:13;26.45;;;13.93;;
41059;SDS011;26811;53.160;8.202;2022-08-19T22:21:17;29.65;;;14.15;;
41059;SDS011;26811;53.160;8.202;2022-08-19T22:31:19;28.27;;;14.18;;
41059;SDS011;26811;53.160;8.202;2022-08-19T22:36:20;35.83;;;17.33;;
41059;SDS011;26811;53.160;8.202;2022-08-19T22:41:25;41.67;;;17.08;;
41059;SDS011;26811;53.160;8.202;2022-08-19T22:46:27;34.00;;;16.65;;
41059;SDS011;26811;53.160;8.202;2022-08-19T22:51:27;40.15;;;18.98;;
41059;SDS011;26811;53.160;8.202;2022-08-19T22:56:46;53.65;;;23.23;;
41059;SDS011;26811;53.160;8.202;2022-08-19T23:01:47;60.75;;;24.48;;
41059;SDS011;26811;53.160;8.202;2022-08-19T23:06:47;74.63;;;27.13;;
41059;SDS011;26811;53.160;8.202;2022-08-19T23:11:51;72.32;;;28.02;;
41059;SDS011;26811;53.160;8.202;2022-08-19T23:16:52;67.43;;;28.58;;
41059;SDS011;26811;53.160;8.202;2022-08-19T23:21:53;75.68;;;29.85;;
41059;SDS011;26811;53.160;8.202;2022-08-19T23:26:55;78.47;;;28.77;;
41059;SDS011;26811;53.160;8.202;2022-08-19T23:32:14;77.97;;;27.80;;
41059;SDS011;26811;53.160;8.202;2022-08-19T23:37:16;85.88;;;29.73;;
41059;SDS011;26811;53.160;8.202;2022-08-19T23:42:17;95.88;;;32.08;;
41059;SDS011;26811;53.160;8.202;2022-08-19T23:47:19;95.88;;;33.53;;
41059;SDS011;26811;53.160;8.202;2022-08-19T23:52:20;91.95;;;32.50;;
41059;SDS011;26811;53.160;8.202;2022-08-19T23:57:20;97.47;;;33.65;;
